sensor_id;sensor_type;location;lat;lon;timestamp;P1;durP1;ratioP1;P2;durP2;ratioP2
46675;SDS011;32412;51.478;5.694;2023-08-07T00:00:34;10.18;;;2.10;;
46675;SDS011;32412;51.478;5.694;2023-08-07T00:03:00;11.27;;;2.72;;
46675;SDS011;32412;51.478;5.694;2023-08-07T00:05:26;8.90;;;2.20;;
46675;SDS011;32412;51.478;5.694;2023-08-07T00:07:52;9.77;;;2.47;;
46675;SDS011;32412;51.478;5.694;2023-08-07T00:10:17;11.88;;;2.47;;
46675;SDS011;32412;51.478;5.694;2023-08-07T00:12:43;16.98;;;2.90;;
46675;SDS011;32412;51.478;5.694;2023-08-07T00:15:09;10.00;;;2.22;;
46675;SDS011;32412;51.478;5.694;2023-08-07T00:17:36;10.43;;;2.40;;
46675;SDS011;32412;51.478;5.694;2023-08-07T00:20:02;17.45;;;2.55;;
46675;SDS011;32412;51.478;5.694;2023-08-07T00:22:28;18.23;;;2.75;;
46675;SDS011;32412;51.478;5.694;2023-08-07T00:24:54;13.80;;;2.80;;
46675;SDS011;32412;51.478;5.694;2023-08-07T00:27:19;13.07;;;2.35;;
46675;SDS011;32412;51.478;5.694;2023-08-07T00:29:45;12.15;;;2.45;;
46675;SDS011;32412;51.478;5.694;2023-08-07T00:32:10;10.80;;;2.67;;
46675;SDS011;32412;51.478;5.694;2023-08-07T00:34:36;9.50;;;2.60;;
46675;SDS011;32412;51.478;5.694;2023-08-07T00:37:02;9.52;;;2.50;;
46675;SDS011;32412;51.478;5.694;2023-08-07T00:39:27;9.63;;;2.10;;
46675;SDS011;32412;51.478;5.694;2023-08-07T00:41:53;6.18;;;2.15;;
46675;SDS011;32412;51.478;5.694;2023-08-07T00:44:19;11.80;;;2.00;;
46675;SDS011;32412;51.478;5.694;2023-08-07T00:46:44;9.38;;;2.53;;
46675;SDS011;32412;51.478;5.694;2023-08-07T00:49:11;15.85;;;2.72;;
46675;SDS011;32412;51.478;5.694;2023-08-07T00:51:37;11.27;;;2.10;;
46675;SDS011;32412;51.478;5.694;2023-08-07T00:54:04;11.18;;;2.13;;
46675;SDS011;32412;51.478;5.694;2023-08-07T00:56:31;8.18;;;1.88;;
46675;SDS011;32412;51.478;5.694;2023-08-07T00:58:58;11.60;;;2.20;;
46675;SDS011;32412;51.478;5.694;2023-08-07T01:01:24;8.18;;;1.90;;
46675;SDS011;32412;51.478;5.694;2023-08-07T01:03:50;11.75;;;2.17;;
46675;SDS011;32412;51.478;5.694;2023-08-07T01:06:16;6.32;;;1.90;;
46675;SDS011;32412;51.478;5.694;2023-08-07T01:08:42;8.93;;;2.30;;
46675;SDS011;32412;51.478;5.694;2023-08-07T01:16:47;13.55;;;2.10;;
46675;SDS011;32412;51.478;5.694;2023-08-07T01:19:23;13.52;;;2.30;;
46675;SDS011;32412;51.478;5.694;2023-08-07T01:22:11;9.23;;;2.20;;
46675;SDS011;32412;51.478;5.694;2023-08-07T01:24:39;10.32;;;2.47;;
46675;SDS011;32412;51.478;5.694;2023-08-07T01:30:02;12.15;;;2.45;;
46675;SDS011;32412;51.478;5.694;2023-08-07T01:35:43;11.00;;;2.50;;
46675;SDS011;32412;51.478;5.694;2023-08-07T01:38:14;15.57;;;2.17;;
46675;SDS011;32412;51.478;5.694;2023-08-07T01:40:40;6.50;;;1.90;;
46675;SDS011;32412;51.478;5.694;2023-08-07T01:43:08;13.25;;;2.25;;
46675;SDS011;32412;51.478;5.694;2023-08-07T01:45:33;8.65;;;2.00;;
46675;SDS011;32412;51.478;5.694;2023-08-07T01:47:59;15.70;;;2.38;;
46675;SDS011;32412;51.478;5.694;2023-08-07T01:50:25;10.82;;;2.13;;
46675;SDS011;32412;51.478;5.694;2023-08-07T01:52:51;15.85;;;2.67;;
46675;SDS011;32412;51.478;5.694;2023-08-07T01:55:18;10.88;;;2.25;;
46675;SDS011;32412;51.478;5.694;2023-08-07T01:57:44;7.80;;;2.20;;
46675;SDS011;32412;51.478;5.694;2023-08-07T02:00:10;7.70;;;2.08;;
46675;SDS011;32412;51.478;5.694;2023-08-07T02:02:36;9.40;;;2.75;;
46675;SDS011;32412;51.478;5.694;2023-08-07T02:05:03;10.43;;;2.58;;
46675;SDS011;32412;51.478;5.694;2023-08-07T02:07:29;12.75;;;2.55;;
46675;SDS011;32412;51.478;5.694;2023-08-07T02:09:55;12.10;;;2.20;;
46675;SDS011;32412;51.478;5.694;2023-08-07T02:12:21;11.38;;;2.75;;
46675;SDS011;32412;51.478;5.694;2023-08-07T02:14:47;15.05;;;2.45;;
46675;SDS011;32412;51.478;5.694;2023-08-07T02:17:13;13.60;;;2.78;;
46675;SDS011;32412;51.478;5.694;2023-08-07T02:19:38;9.57;;;2.60;;
46675;SDS011;32412;51.478;5.694;2023-08-07T02:22:05;9.95;;;2.10;;
46675;SDS011;32412;51.478;5.694;2023-08-07T02:24:30;8.25;;;2.30;;
46675;SDS011;32412;51.478;5.694;2023-08-07T02:26:56;12.40;;;2.20;;
46675;SDS011;32412;51.478;5.694;2023-08-07T02:29:22;9.30;;;2.25;;
46675;SDS011;32412;51.478;5.694;2023-08-07T02:31:47;12.90;;;2.92;;
46675;SDS011;32412;51.478;5.694;2023-08-07T02:34:13;8.52;;;2.20;;
46675;SDS011;32412;51.478;5.694;2023-08-07T02:36:38;7.30;;;2.33;;
46675;SDS011;32412;51.478;5.694;2023-08-07T02:39:04;11.65;;;2.72;;
46675;SDS011;32412;51.478;5.694;2023-08-07T02:41:30;7.82;;;2.40;;
46675;SDS011;32412;51.478;5.694;2023-08-07T02:43:56;12.02;;;2.13;;
46675;SDS011;32412;51.478;5.694;2023-08-07T02:46:22;9.35;;;2.22;;
46675;SDS011;32412;51.478;5.694;2023-08-07T02:48:48;17.35;;;2.72;;
46675;SDS011;32412;51.478;5.694;2023-08-07T02:51:13;9.10;;;2.92;;
46675;SDS011;32412;51.478;5.694;2023-08-07T02:53:39;7.15;;;2.10;;
46675;SDS011;32412;51.478;5.694;2023-08-07T02:56:05;10.25;;;2.85;;
46675;SDS011;32412;51.478;5.694;2023-08-07T02:58:30;17.05;;;3.00;;
46675;SDS011;32412;51.478;5.694;2023-08-07T03:00:56;8.23;;;2.38;;
46675;SDS011;32412;51.478;5.694;2023-08-07T03:03:22;11.88;;;2.70;;
46675;SDS011;32412;51.478;5.694;2023-08-07T03:05:48;10.60;;;3.35;;
46675;SDS011;32412;51.478;5.694;2023-08-07T03:08:15;14.00;;;2.90;;
46675;SDS011;32412;51.478;5.694;2023-08-07T03:10:41;12.95;;;2.58;;
46675;SDS011;32412;51.478;5.694;2023-08-07T03:13:06;10.27;;;2.60;;
46675;SDS011;32412;51.478;5.694;2023-08-07T03:15:32;10.65;;;2.60;;
46675;SDS011;32412;51.478;5.694;2023-08-07T03:17:58;7.75;;;2.40;;
46675;SDS011;32412;51.478;5.694;2023-08-07T03:20:23;12.75;;;2.70;;
46675;SDS011;32412;51.478;5.694;2023-08-07T03:22:49;10.32;;;2.13;;
46675;SDS011;32412;51.478;5.694;2023-08-07T03:25:15;11.55;;;2.72;;
46675;SDS011;32412;51.478;5.694;2023-08-07T03:27:40;11.32;;;2.50;;
46675;SDS011;32412;51.478;5.694;2023-08-07T03:30:06;8.52;;;2.38;;
46675;SDS011;32412;51.478;5.694;2023-08-07T03:32:32;18.05;;;3.17;;
46675;SDS011;32412;51.478;5.694;2023-08-07T03:34:58;21.63;;;4.43;;
46675;SDS011;32412;51.478;5.694;2023-08-07T03:37:24;7.60;;;2.38;;
46675;SDS011;32412;51.478;5.694;2023-08-07T03:39:50;14.52;;;3.08;;
46675;SDS011;32412;51.478;5.694;2023-08-07T03:42:15;13.88;;;3.20;;
46675;SDS011;32412;51.478;5.694;2023-08-07T03:44:41;11.57;;;3.67;;
46675;SDS011;32412;51.478;5.694;2023-08-07T03:47:07;13.43;;;3.38;;
46675;SDS011;32412;51.478;5.694;2023-08-07T03:49:32;14.07;;;3.00;;
46675;SDS011;32412;51.478;5.694;2023-08-07T03:51:58;14.45;;;3.20;;
46675;SDS011;32412;51.478;5.694;2023-08-07T03:54:24;16.83;;;2.90;;
46675;SDS011;32412;51.478;5.694;2023-08-07T03:56:50;15.40;;;3.30;;
46675;SDS011;32412;51.478;5.694;2023-08-07T03:59:16;10.65;;;3.05;;
46675;SDS011;32412;51.478;5.694;2023-08-07T04:01:42;13.05;;;2.88;;
46675;SDS011;32412;51.478;5.694;2023-08-07T04:04:08;11.13;;;3.10;;
46675;SDS011;32412;51.478;5.694;2023-08-07T04:06:34;9.98;;;2.85;;
46675;SDS011;32412;51.478;5.694;2023-08-07T04:08:59;13.32;;;2.90;;
46675;SDS011;32412;51.478;5.694;2023-08-07T04:11:26;9.57;;;2.65;;
46675;SDS011;32412;51.478;5.694;2023-08-07T04:13:52;8.95;;;2.80;;
46675;SDS011;32412;51.478;5.694;2023-08-07T04:16:17;16.35;;;3.42;;
46675;SDS011;32412;51.478;5.694;2023-08-07T04:18:44;10.60;;;2.55;;
46675;SDS011;32412;51.478;5.694;2023-08-07T04:21:10;12.73;;;3.00;;
46675;SDS011;32412;51.478;5.694;2023-08-07T04:23:36;15.65;;;2.88;;
46675;SDS011;32412;51.478;5.694;2023-08-07T04:26:01;9.70;;;2.50;;
46675;SDS011;32412;51.478;5.694;2023-08-07T04:28:29;11.35;;;2.90;;
46675;SDS011;32412;51.478;5.694;2023-08-07T04:30:54;9.57;;;2.42;;
46675;SDS011;32412;51.478;5.694;2023-08-07T04:33:20;11.43;;;3.25;;
46675;SDS011;32412;51.478;5.694;2023-08-07T04:35:46;8.25;;;2.42;;
46675;SDS011;32412;51.478;5.694;2023-08-07T04:38:12;8.73;;;2.83;;
46675;SDS011;32412;51.478;5.694;2023-08-07T04:40:43;11.43;;;3.00;;
46675;SDS011;32412;51.478;5.694;2023-08-07T04:43:12;11.43;;;2.33;;
46675;SDS011;32412;51.478;5.694;2023-08-07T04:45:38;5.93;;;2.22;;
46675;SDS011;32412;51.478;5.694;2023-08-07T04:48:04;9.77;;;2.65;;
46675;SDS011;32412;51.478;5.694;2023-08-07T04:50:31;10.48;;;2.70;;
46675;SDS011;32412;51.478;5.694;2023-08-07T04:52:57;8.00;;;2.55;;
46675;SDS011;32412;51.478;5.694;2023-08-07T04:55:22;11.82;;;2.28;;
46675;SDS011;32412;51.478;5.694;2023-08-07T04:57:48;5.85;;;2.25;;
46675;SDS011;32412;51.478;5.694;2023-08-07T05:00:16;8.77;;;2.55;;
46675;SDS011;32412;51.478;5.694;2023-08-07T05:02:42;9.52;;;2.22;;
46675;SDS011;32412;51.478;5.694;2023-08-07T05:05:08;6.63;;;2.25;;
46675;SDS011;32412;51.478;5.694;2023-08-07T05:07:34;8.25;;;2.45;;
46675;SDS011;32412;51.478;5.694;2023-08-07T05:10:03;8.77;;;2.63;;
46675;SDS011;32412;51.478;5.694;2023-08-07T05:12:29;10.05;;;2.90;;
46675;SDS011;32412;51.478;5.694;2023-08-07T05:14:56;7.22;;;1.95;;
46675;SDS011;32412;51.478;5.694;2023-08-07T05:17:22;10.30;;;2.63;;
46675;SDS011;32412;51.478;5.694;2023-08-07T05:19:47;6.13;;;2.10;;
46675;SDS011;32412;51.478;5.694;2023-08-07T05:22:13;8.88;;;2.10;;
46675;SDS011;32412;51.478;5.694;2023-08-07T05:24:38;9.43;;;2.13;;
46675;SDS011;32412;51.478;5.694;2023-08-07T05:27:05;9.43;;;2.72;;
46675;SDS011;32412;51.478;5.694;2023-08-07T05:29:33;5.55;;;1.90;;
46675;SDS011;32412;51.478;5.694;2023-08-07T05:31:59;7.60;;;1.90;;
46675;SDS011;32412;51.478;5.694;2023-08-07T05:34:25;4.15;;;1.70;;
46675;SDS011;32412;51.478;5.694;2023-08-07T05:36:50;8.90;;;1.90;;
46675;SDS011;32412;51.478;5.694;2023-08-07T05:39:16;9.55;;;2.15;;
46675;SDS011;32412;51.478;5.694;2023-08-07T05:41:42;7.05;;;2.00;;
46675;SDS011;32412;51.478;5.694;2023-08-07T05:44:08;11.48;;;1.75;;
46675;SDS011;32412;51.478;5.694;2023-08-07T05:46:34;9.45;;;1.90;;
46675;SDS011;32412;51.478;5.694;2023-08-07T05:48:59;5.93;;;1.83;;
46675;SDS011;32412;51.478;5.694;2023-08-07T05:51:25;6.72;;;1.70;;
46675;SDS011;32412;51.478;5.694;2023-08-07T05:53:50;7.25;;;1.92;;
46675;SDS011;32412;51.478;5.694;2023-08-07T05:56:16;4.70;;;1.73;;
46675;SDS011;32412;51.478;5.694;2023-08-07T05:58:43;6.32;;;1.90;;
46675;SDS011;32412;51.478;5.694;2023-08-07T06:01:08;11.18;;;1.88;;
46675;SDS011;32412;51.478;5.694;2023-08-07T06:03:34;7.93;;;2.30;;
46675;SDS011;32412;51.478;5.694;2023-08-07T06:05:59;12.80;;;2.85;;
46675;SDS011;32412;51.478;5.694;2023-08-07T06:08:25;8.77;;;2.30;;
46675;SDS011;32412;51.478;5.694;2023-08-07T06:10:51;12.65;;;2.67;;
46675;SDS011;32412;51.478;5.694;2023-08-07T06:13:16;8.93;;;2.70;;
46675;SDS011;32412;51.478;5.694;2023-08-07T06:15:42;11.63;;;2.70;;
46675;SDS011;32412;51.478;5.694;2023-08-07T06:18:08;9.73;;;2.50;;
46675;SDS011;32412;51.478;5.694;2023-08-07T06:20:33;9.88;;;2.30;;
46675;SDS011;32412;51.478;5.694;2023-08-07T06:23:02;11.27;;;2.25;;
46675;SDS011;32412;51.478;5.694;2023-08-07T06:25:28;14.40;;;2.30;;
46675;SDS011;32412;51.478;5.694;2023-08-07T06:27:53;9.25;;;2.50;;
46675;SDS011;32412;51.478;5.694;2023-08-07T06:30:19;7.97;;;2.38;;
46675;SDS011;32412;51.478;5.694;2023-08-07T06:32:45;7.50;;;1.98;;
46675;SDS011;32412;51.478;5.694;2023-08-07T06:35:10;14.68;;;2.78;;
46675;SDS011;32412;51.478;5.694;2023-08-07T06:37:36;9.68;;;2.47;;
46675;SDS011;32412;51.478;5.694;2023-08-07T06:40:02;11.75;;;3.03;;
46675;SDS011;32412;51.478;5.694;2023-08-07T06:42:27;9.93;;;2.30;;
46675;SDS011;32412;51.478;5.694;2023-08-07T06:44:53;11.18;;;2.38;;
46675;SDS011;32412;51.478;5.694;2023-08-07T06:47:20;12.25;;;2.47;;
46675;SDS011;32412;51.478;5.694;2023-08-07T06:49:46;9.25;;;2.22;;
46675;SDS011;32412;51.478;5.694;2023-08-07T06:52:12;10.18;;;1.98;;
46675;SDS011;32412;51.478;5.694;2023-08-07T06:54:38;11.50;;;2.40;;
46675;SDS011;32412;51.478;5.694;2023-08-07T06:57:04;9.82;;;3.05;;
46675;SDS011;32412;51.478;5.694;2023-08-07T06:59:30;12.02;;;2.13;;
46675;SDS011;32412;51.478;5.694;2023-08-07T07:01:56;4.78;;;1.70;;
46675;SDS011;32412;51.478;5.694;2023-08-07T07:04:21;11.07;;;1.58;;
46675;SDS011;32412;51.478;5.694;2023-08-07T07:06:47;10.85;;;1.90;;
46675;SDS011;32412;51.478;5.694;2023-08-07T07:09:20;11.20;;;2.38;;
46675;SDS011;32412;51.478;5.694;2023-08-07T07:11:46;8.68;;;2.03;;
46675;SDS011;32412;51.478;5.694;2023-08-07T07:14:15;8.55;;;2.15;;
46675;SDS011;32412;51.478;5.694;2023-08-07T07:16:41;4.70;;;1.70;;
46675;SDS011;32412;51.478;5.694;2023-08-07T07:19:08;9.65;;;1.70;;
46675;SDS011;32412;51.478;5.694;2023-08-07T07:21:34;6.88;;;1.90;;
46675;SDS011;32412;51.478;5.694;2023-08-07T07:24:01;7.03;;;1.35;;
46675;SDS011;32412;51.478;5.694;2023-08-07T07:26:27;4.68;;;1.50;;
46675;SDS011;32412;51.478;5.694;2023-08-07T07:28:53;8.93;;;2.10;;
46675;SDS011;32412;51.478;5.694;2023-08-07T07:31:19;6.80;;;1.50;;
46675;SDS011;32412;51.478;5.694;2023-08-07T07:33:44;6.43;;;1.70;;
46675;SDS011;32412;51.478;5.694;2023-08-07T07:36:17;6.80;;;1.70;;
46675;SDS011;32412;51.478;5.694;2023-08-07T07:38:46;9.57;;;2.42;;
46675;SDS011;32412;51.478;5.694;2023-08-07T07:41:13;11.60;;;1.73;;
46675;SDS011;32412;51.478;5.694;2023-08-07T07:43:39;12.73;;;2.13;;
46675;SDS011;32412;51.478;5.694;2023-08-07T07:46:05;6.28;;;1.58;;
46675;SDS011;32412;51.478;5.694;2023-08-07T07:48:31;5.70;;;2.00;;
46675;SDS011;32412;51.478;5.694;2023-08-07T07:51:03;9.80;;;2.20;;
46675;SDS011;32412;51.478;5.694;2023-08-07T07:53:29;7.53;;;1.90;;
46675;SDS011;32412;51.478;5.694;2023-08-07T07:55:55;9.63;;;2.13;;
46675;SDS011;32412;51.478;5.694;2023-08-07T07:58:21;9.23;;;1.73;;
46675;SDS011;32412;51.478;5.694;2023-08-07T08:00:47;9.35;;;2.08;;
46675;SDS011;32412;51.478;5.694;2023-08-07T08:03:13;5.80;;;2.35;;
46675;SDS011;32412;51.478;5.694;2023-08-07T08:05:39;10.85;;;2.30;;
46675;SDS011;32412;51.478;5.694;2023-08-07T08:08:05;22.90;;;4.03;;
46675;SDS011;32412;51.478;5.694;2023-08-07T08:10:35;15.65;;;2.97;;
46675;SDS011;32412;51.478;5.694;2023-08-07T08:13:01;9.98;;;2.30;;
46675;SDS011;32412;51.478;5.694;2023-08-07T08:15:29;7.85;;;2.28;;
46675;SDS011;32412;51.478;5.694;2023-08-07T08:17:55;6.63;;;2.55;;
46675;SDS011;32412;51.478;5.694;2023-08-07T08:20:20;7.28;;;1.95;;
46675;SDS011;32412;51.478;5.694;2023-08-07T08:22:46;6.00;;;1.92;;
46675;SDS011;32412;51.478;5.694;2023-08-07T08:25:12;9.02;;;2.00;;
46675;SDS011;32412;51.478;5.694;2023-08-07T08:27:38;6.05;;;2.08;;
46675;SDS011;32412;51.478;5.694;2023-08-07T08:30:05;5.70;;;1.92;;
46675;SDS011;32412;51.478;5.694;2023-08-07T08:32:32;6.68;;;2.15;;
46675;SDS011;32412;51.478;5.694;2023-08-07T08:34:58;8.75;;;1.80;;
46675;SDS011;32412;51.478;5.694;2023-08-07T08:37:23;7.97;;;1.80;;
46675;SDS011;32412;51.478;5.694;2023-08-07T08:39:49;6.60;;;1.95;;
46675;SDS011;32412;51.478;5.694;2023-08-07T08:42:15;14.52;;;2.58;;
46675;SDS011;32412;51.478;5.694;2023-08-07T08:44:45;8.02;;;2.28;;
46675;SDS011;32412;51.478;5.694;2023-08-07T08:47:16;7.38;;;2.10;;
46675;SDS011;32412;51.478;5.694;2023-08-07T08:50:01;6.43;;;2.33;;
46675;SDS011;32412;51.478;5.694;2023-08-07T08:52:29;9.38;;;2.20;;
46675;SDS011;32412;51.478;5.694;2023-08-07T08:54:57;7.63;;;1.80;;
46675;SDS011;32412;51.478;5.694;2023-08-07T08:57:24;9.32;;;1.70;;
46675;SDS011;32412;51.478;5.694;2023-08-07T08:59:51;7.70;;;2.00;;
46675;SDS011;32412;51.478;5.694;2023-08-07T09:02:17;8.30;;;1.88;;
46675;SDS011;32412;51.478;5.694;2023-08-07T09:04:43;6.22;;;1.80;;
46675;SDS011;32412;51.478;5.694;2023-08-07T09:07:09;7.80;;;1.60;;
46675;SDS011;32412;51.478;5.694;2023-08-07T09:09:38;9.00;;;1.90;;
46675;SDS011;32412;51.478;5.694;2023-08-07T09:12:06;7.18;;;2.08;;
46675;SDS011;32412;51.478;5.694;2023-08-07T09:14:33;10.30;;;1.77;;
46675;SDS011;32412;51.478;5.694;2023-08-07T09:17:02;3.15;;;1.58;;
46675;SDS011;32412;51.478;5.694;2023-08-07T09:19:29;6.25;;;1.30;;
46675;SDS011;32412;51.478;5.694;2023-08-07T09:21:55;9.73;;;2.08;;
46675;SDS011;32412;51.478;5.694;2023-08-07T09:24:21;8.93;;;1.55;;
46675;SDS011;32412;51.478;5.694;2023-08-07T09:26:47;4.18;;;1.60;;
46675;SDS011;32412;51.478;5.694;2023-08-07T09:29:15;4.38;;;1.70;;
46675;SDS011;32412;51.478;5.694;2023-08-07T09:31:43;5.13;;;1.63;;
46675;SDS011;32412;51.478;5.694;2023-08-07T09:34:11;9.50;;;1.50;;
46675;SDS011;32412;51.478;5.694;2023-08-07T09:36:39;9.25;;;1.60;;
46675;SDS011;32412;51.478;5.694;2023-08-07T09:39:06;7.60;;;1.55;;
46675;SDS011;32412;51.478;5.694;2023-08-07T09:41:31;3.50;;;1.60;;
46675;SDS011;32412;51.478;5.694;2023-08-07T09:43:57;6.75;;;1.45;;
46675;SDS011;32412;51.478;5.694;2023-08-07T09:46:25;5.50;;;1.63;;
46675;SDS011;32412;51.478;5.694;2023-08-07T09:48:51;6.50;;;1.38;;
46675;SDS011;32412;51.478;5.694;2023-08-07T09:51:17;3.72;;;1.50;;
46675;SDS011;32412;51.478;5.694;2023-08-07T09:53:42;10.70;;;1.45;;
46675;SDS011;32412;51.478;5.694;2023-08-07T09:56:08;6.40;;;1.77;;
46675;SDS011;32412;51.478;5.694;2023-08-07T09:58:34;4.47;;;1.25;;
46675;SDS011;32412;51.478;5.694;2023-08-07T10:01:00;3.50;;;1.10;;
46675;SDS011;32412;51.478;5.694;2023-08-07T10:03:28;4.75;;;1.60;;
46675;SDS011;32412;51.478;5.694;2023-08-07T10:05:54;5.95;;;1.27;;
46675;SDS011;32412;51.478;5.694;2023-08-07T10:08:20;5.72;;;1.52;;
46675;SDS011;32412;51.478;5.694;2023-08-07T10:10:47;5.43;;;1.30;;
46675;SDS011;32412;51.478;5.694;2023-08-07T10:13:13;6.70;;;1.73;;
46675;SDS011;32412;51.478;5.694;2023-08-07T10:15:39;5.18;;;1.48;;
46675;SDS011;32412;51.478;5.694;2023-08-07T10:18:07;3.20;;;1.17;;
46675;SDS011;32412;51.478;5.694;2023-08-07T10:20:36;4.75;;;1.50;;
46675;SDS011;32412;51.478;5.694;2023-08-07T10:23:09;4.82;;;1.10;;
46675;SDS011;32412;51.478;5.694;2023-08-07T10:25:37;6.72;;;1.35;;
46675;SDS011;32412;51.478;5.694;2023-08-07T10:28:07;4.38;;;1.20;;
46675;SDS011;32412;51.478;5.694;2023-08-07T10:30:35;4.50;;;1.20;;
46675;SDS011;32412;51.478;5.694;2023-08-07T10:33:02;5.28;;;1.40;;
46675;SDS011;32412;51.478;5.694;2023-08-07T10:35:30;2.67;;;1.40;;
46675;SDS011;32412;51.478;5.694;2023-08-07T10:38:06;6.90;;;1.27;;
46675;SDS011;32412;51.478;5.694;2023-08-07T10:40:34;3.92;;;1.38;;
46675;SDS011;32412;51.478;5.694;2023-08-07T10:43:18;5.38;;;1.20;;
46675;SDS011;32412;51.478;5.694;2023-08-07T10:45:44;6.78;;;1.30;;
46675;SDS011;32412;51.478;5.694;2023-08-07T10:48:13;5.53;;;1.17;;
46675;SDS011;32412;51.478;5.694;2023-08-07T10:55:53;4.75;;;1.42;;
46675;SDS011;32412;51.478;5.694;2023-08-07T11:00:49;6.18;;;1.20;;
46675;SDS011;32412;51.478;5.694;2023-08-07T11:03:20;4.00;;;1.20;;
46675;SDS011;32412;51.478;5.694;2023-08-07T11:05:52;2.90;;;1.15;;
46675;SDS011;32412;51.478;5.694;2023-08-07T11:08:22;4.38;;;1.30;;
46675;SDS011;32412;51.478;5.694;2023-08-07T11:10:49;2.00;;;1.35;;
46675;SDS011;32412;51.478;5.694;2023-08-07T11:13:16;5.90;;;1.30;;
46675;SDS011;32412;51.478;5.694;2023-08-07T11:15:43;2.92;;;1.27;;
46675;SDS011;32412;51.478;5.694;2023-08-07T11:18:09;1.90;;;1.13;;
46675;SDS011;32412;51.478;5.694;2023-08-07T11:20:35;3.28;;;1.55;;
46675;SDS011;32412;51.478;5.694;2023-08-07T11:23:04;6.05;;;1.33;;
46675;SDS011;32412;51.478;5.694;2023-08-07T11:25:30;2.47;;;0.93;;
46675;SDS011;32412;51.478;5.694;2023-08-07T11:27:56;4.90;;;1.40;;
46675;SDS011;32412;51.478;5.694;2023-08-07T11:30:21;2.17;;;1.05;;
46675;SDS011;32412;51.478;5.694;2023-08-07T11:32:47;2.67;;;1.33;;
46675;SDS011;32412;51.478;5.694;2023-08-07T11:35:12;3.72;;;1.10;;
46675;SDS011;32412;51.478;5.694;2023-08-07T11:37:45;4.78;;;1.15;;
46675;SDS011;32412;51.478;5.694;2023-08-07T11:40:12;3.17;;;1.02;;
46675;SDS011;32412;51.478;5.694;2023-08-07T11:42:38;2.13;;;1.00;;
46675;SDS011;32412;51.478;5.694;2023-08-07T11:45:05;3.92;;;1.20;;
46675;SDS011;32412;51.478;5.694;2023-08-07T11:47:31;3.25;;;1.02;;
46675;SDS011;32412;51.478;5.694;2023-08-07T11:49:58;4.55;;;1.50;;
46675;SDS011;32412;51.478;5.694;2023-08-07T11:52:24;4.57;;;1.17;;
46675;SDS011;32412;51.478;5.694;2023-08-07T11:54:50;4.63;;;1.00;;
46675;SDS011;32412;51.478;5.694;2023-08-07T11:57:18;9.40;;;1.58;;
46675;SDS011;32412;51.478;5.694;2023-08-07T11:59:49;2.95;;;1.40;;
46675;SDS011;32412;51.478;5.694;2023-08-07T12:02:15;2.60;;;1.15;;
46675;SDS011;32412;51.478;5.694;2023-08-07T12:04:41;4.10;;;1.35;;
46675;SDS011;32412;51.478;5.694;2023-08-07T12:07:06;3.08;;;1.25;;
46675;SDS011;32412;51.478;5.694;2023-08-07T12:09:36;3.92;;;1.88;;
46675;SDS011;32412;51.478;5.694;2023-08-07T12:12:02;2.70;;;1.20;;
46675;SDS011;32412;51.478;5.694;2023-08-07T12:14:29;4.20;;;1.27;;
46675;SDS011;32412;51.478;5.694;2023-08-07T12:16:55;3.47;;;1.30;;
46675;SDS011;32412;51.478;5.694;2023-08-07T12:19:21;2.72;;;1.02;;
46675;SDS011;32412;51.478;5.694;2023-08-07T12:21:46;2.05;;;1.20;;
46675;SDS011;32412;51.478;5.694;2023-08-07T12:24:12;4.72;;;1.30;;
46675;SDS011;32412;51.478;5.694;2023-08-07T12:26:38;2.35;;;1.15;;
46675;SDS011;32412;51.478;5.694;2023-08-07T12:29:04;4.57;;;1.30;;
46675;SDS011;32412;51.478;5.694;2023-08-07T12:31:29;7.25;;;4.13;;
46675;SDS011;32412;51.478;5.694;2023-08-07T12:33:55;3.97;;;1.33;;
46675;SDS011;32412;51.478;5.694;2023-08-07T12:36:20;4.85;;;1.27;;
46675;SDS011;32412;51.478;5.694;2023-08-07T12:38:46;3.90;;;1.15;;
46675;SDS011;32412;51.478;5.694;2023-08-07T12:41:12;2.45;;;1.23;;
46675;SDS011;32412;51.478;5.694;2023-08-07T12:43:39;3.88;;;1.33;;
46675;SDS011;32412;51.478;5.694;2023-08-07T12:46:04;3.30;;;1.55;;
46675;SDS011;32412;51.478;5.694;2023-08-07T12:48:30;5.03;;;1.63;;
46675;SDS011;32412;51.478;5.694;2023-08-07T12:50:56;3.47;;;1.77;;
46675;SDS011;32412;51.478;5.694;2023-08-07T12:53:21;3.03;;;1.35;;
46675;SDS011;32412;51.478;5.694;2023-08-07T12:55:47;4.82;;;1.60;;
46675;SDS011;32412;51.478;5.694;2023-08-07T12:58:13;4.15;;;1.75;;
46675;SDS011;32412;51.478;5.694;2023-08-07T13:00:38;3.05;;;1.30;;
46675;SDS011;32412;51.478;5.694;2023-08-07T13:03:04;5.95;;;1.40;;
46675;SDS011;32412;51.478;5.694;2023-08-07T13:05:29;4.53;;;1.50;;
46675;SDS011;32412;51.478;5.694;2023-08-07T13:07:56;5.10;;;1.50;;
46675;SDS011;32412;51.478;5.694;2023-08-07T13:10:23;5.30;;;1.70;;
46675;SDS011;32412;51.478;5.694;2023-08-07T13:12:49;4.63;;;1.77;;
46675;SDS011;32412;51.478;5.694;2023-08-07T13:15:16;6.68;;;2.00;;
46675;SDS011;32412;51.478;5.694;2023-08-07T13:17:43;7.57;;;2.00;;
46675;SDS011;32412;51.478;5.694;2023-08-07T13:20:09;3.88;;;2.03;;
46675;SDS011;32412;51.478;5.694;2023-08-07T13:22:38;4.45;;;1.90;;
46675;SDS011;32412;51.478;5.694;2023-08-07T13:25:05;4.45;;;2.00;;
46675;SDS011;32412;51.478;5.694;2023-08-07T13:27:32;5.07;;;1.90;;
46675;SDS011;32412;51.478;5.694;2023-08-07T13:29:58;4.53;;;1.70;;
46675;SDS011;32412;51.478;5.694;2023-08-07T13:32:25;5.05;;;1.98;;
46675;SDS011;32412;51.478;5.694;2023-08-07T13:34:51;3.70;;;1.75;;
46675;SDS011;32412;51.478;5.694;2023-08-07T13:37:16;4.20;;;1.90;;
46675;SDS011;32412;51.478;5.694;2023-08-07T13:39:42;4.10;;;1.95;;
46675;SDS011;32412;51.478;5.694;2023-08-07T13:42:08;7.97;;;2.50;;
46675;SDS011;32412;51.478;5.694;2023-08-07T13:44:35;3.90;;;2.00;;
46675;SDS011;32412;51.478;5.694;2023-08-07T13:47:01;4.95;;;1.90;;
46675;SDS011;32412;51.478;5.694;2023-08-07T13:49:27;5.22;;;2.08;;
46675;SDS011;32412;51.478;5.694;2023-08-07T13:51:55;5.47;;;1.58;;
46675;SDS011;32412;51.478;5.694;2023-08-07T13:54:21;7.22;;;2.60;;
46675;SDS011;32412;51.478;5.694;2023-08-07T13:56:47;4.40;;;2.15;;
46675;SDS011;32412;51.478;5.694;2023-08-07T13:59:13;8.57;;;2.20;;
46675;SDS011;32412;51.478;5.694;2023-08-07T14:01:38;4.13;;;1.70;;
46675;SDS011;32412;51.478;5.694;2023-08-07T14:04:04;3.50;;;2.00;;
46675;SDS011;32412;51.478;5.694;2023-08-07T14:06:30;5.30;;;2.38;;
46675;SDS011;32412;51.478;5.694;2023-08-07T14:08:56;4.72;;;2.28;;
46675;SDS011;32412;51.478;5.694;2023-08-07T14:11:21;4.25;;;1.92;;
46675;SDS011;32412;51.478;5.694;2023-08-07T14:13:55;3.95;;;1.80;;
46675;SDS011;32412;51.478;5.694;2023-08-07T14:16:23;2.95;;;1.83;;
46675;SDS011;32412;51.478;5.694;2023-08-07T14:18:50;3.75;;;1.85;;
46675;SDS011;32412;51.478;5.694;2023-08-07T14:21:15;3.92;;;2.15;;
46675;SDS011;32412;51.478;5.694;2023-08-07T14:23:41;9.15;;;2.00;;
46675;SDS011;32412;51.478;5.694;2023-08-07T14:26:07;4.10;;;1.70;;
46675;SDS011;32412;51.478;5.694;2023-08-07T14:28:33;6.55;;;1.90;;
46675;SDS011;32412;51.478;5.694;2023-08-07T14:30:59;7.95;;;1.77;;
46675;SDS011;32412;51.478;5.694;2023-08-07T14:33:24;2.45;;;1.70;;
46675;SDS011;32412;51.478;5.694;2023-08-07T14:35:51;1.95;;;1.27;;
46675;SDS011;32412;51.478;5.694;2023-08-07T14:38:16;3.17;;;1.83;;
46675;SDS011;32412;51.478;5.694;2023-08-07T14:40:42;3.10;;;1.50;;
46675;SDS011;32412;51.478;5.694;2023-08-07T14:43:08;5.03;;;1.70;;
46675;SDS011;32412;51.478;5.694;2023-08-07T14:45:35;3.80;;;1.55;;
46675;SDS011;32412;51.478;5.694;2023-08-07T14:48:02;4.30;;;1.90;;
46675;SDS011;32412;51.478;5.694;2023-08-07T14:50:28;5.10;;;1.70;;
46675;SDS011;32412;51.478;5.694;2023-08-07T14:52:53;4.53;;;1.83;;
46675;SDS011;32412;51.478;5.694;2023-08-07T14:55:19;5.55;;;2.10;;
46675;SDS011;32412;51.478;5.694;2023-08-07T14:57:44;4.90;;;1.83;;